sensor_id;sensor_type;location;lat;lon;timestamp;temperature;humidity
7194;DHT22;3638;48.820;9.244;2023-02-01T00:00:57;4.90;99.90
7194;DHT22;3638;48.820;9.244;2023-02-01T00:03:23;4.90;99.90
7194;DHT22;3638;48.820;9.244;2023-02-01T00:05:55;4.80;99.90
7194;DHT22;3638;48.820;9.244;2023-02-01T00:08:23;4.90;99.90
7194;DHT22;3638;48.820;9.244;2023-02-01T00:10:58;4.80;99.90
7194;DHT22;3638;48.820;9.244;2023-02-01T00:13:29;4.80;99.90
7194;DHT22;3638;48.820;9.244;2023-02-01T00:16:03;4.80;99.90
7194;DHT22;3638;48.820;9.244;2023-02-01T00:18:30;4.70;99.90
7194;DHT22;3638;48.820;9.244;2023-02-01T00:20:57;4.70;99.90
7194;DHT22;3638;48.820;9.244;2023-02-01T00:23:24;4.70;99.90
7194;DHT22;3638;48.820;9.244;2023-02-01T00:25:51;4.70;99.90
7194;DHT22;3638;48.820;9.244;2023-02-01T00:28:18;4.70;99.90
7194;DHT22;3638;48.820;9.244;2023-02-01T00:30:46;4.70;99.90
7194;DHT22;3638;48.820;9.244;2023-02-01T00:33:13;4.70;99.90
7194;DHT22;3638;48.820;9.244;2023-02-01T00:35:40;4.70;99.90
7194;DHT22;3638;48.820;9.244;2023-02-01T00:38:07;4.60;99.90
7194;DHT22;3638;48.820;9.244;2023-02-01T00:43:01;4.60;99.90
7194;DHT22;3638;48.820;9.244;2023-02-01T00:45:28;4.60;99.90
7194;DHT22;3638;48.820;9.244;2023-02-01T00:47:56;4.60;99.90
7194;DHT22;3638;48.820;9.244;2023-02-01T00:50:23;4.70;99.90
7194;DHT22;3638;48.820;9.244;2023-02-01T00:55:17;4.60;99.90
7194;DHT22;3638;48.820;9.244;2023-02-01T00:57:43;4.60;99.90
7194;DHT22;3638;48.820;9.244;2023-02-01T01:00:11;4.60;99.90
7194;DHT22;3638;48.820;9.244;2023-02-01T01:02:38;4.70;99.90
7194;DHT22;3638;48.820;9.244;2023-02-01T01:05:07;4.70;99.90
7194;DHT22;3638;48.820;9.244;2023-02-01T01:07:34;4.70;99.90
7194;DHT22;3638;48.820;9.244;2023-02-01T01:10:01;4.70;99.90
7194;DHT22;3638;48.820;9.244;2023-02-01T01:12:28;4.60;99.90
7194;DHT22;3638;48.820;9.244;2023-02-01T01:14:54;4.50;99.90
7194;DHT22;3638;48.820;9.244;2023-02-01T01:17:21;4.50;99.90
7194;DHT22;3638;48.820;9.244;2023-02-01T01:19:48;4.40;99.90
7194;DHT22;3638;48.820;9.244;2023-02-01T01:22:16;4.40;99.90
7194;DHT22;3638;48.820;9.244;2023-02-01T01:24:44;4.40;99.90
7194;DHT22;3638;48.820;9.244;2023-02-01T01:27:11;4.50;99.90
7194;DHT22;3638;48.820;9.244;2023-02-01T01:29:37;4.50;99.90
7194;DHT22;3638;48.820;9.244;2023-02-01T01:32:04;4.50;99.90
7194;DHT22;3638;48.820;9.244;2023-02-01T01:34:31;4.50;99.90
7194;DHT22;3638;48.820;9.244;2023-02-01T01:36:58;4.50;99.90
7194;DHT22;3638;48.820;9.244;2023-02-01T01:39:26;4.50;99.90
7194;DHT22;3638;48.820;9.244;2023-02-01T01:41:53;4.50;99.90
7194;DHT22;3638;48.820;9.244;2023-02-01T01:44:58;4.60;99.90
7194;DHT22;3638;48.820;9.244;2023-02-01T01:47:30;4.60;99.90
7194;DHT22;3638;48.820;9.244;2023-02-01T01:49:58;4.60;99.90
7194;DHT22;3638;48.820;9.244;2023-02-01T01:52:26;4.60;99.90
7194;DHT22;3638;48.820;9.244;2023-02-01T01:54:54;4.60;99.90
7194;DHT22;3638;48.820;9.244;2023-02-01T01:57:25;4.60;99.90
7194;DHT22;3638;48.820;9.244;2023-02-01T01:59:59;4.70;99.90
7194;DHT22;3638;48.820;9.244;2023-02-01T02:02:30;4.70;99.90
7194;DHT22;3638;48.820;9.244;2023-02-01T02:04:57;4.70;99.90
7194;DHT22;3638;48.820;9.244;2023-02-01T02:07:28;4.70;99.90
7194;DHT22;3638;48.820;9.244;2023-02-01T02:09:58;4.70;99.90
7194;DHT22;3638;48.820;9.244;2023-02-01T02:14:52;4.00;99.90
7194;DHT22;3638;48.820;9.244;2023-02-01T02:17:30;4.80;99.90
7194;DHT22;3638;48.820;9.244;2023-02-01T02:20:30;4.80;99.90
7194;DHT22;3638;48.820;9.244;2023-02-01T02:23:28;4.80;99.90
7194;DHT22;3638;48.820;9.244;2023-02-01T02:26:44;4.80;99.90
7194;DHT22;3638;48.820;9.244;2023-02-01T02:29:46;4.80;99.90
7194;DHT22;3638;48.820;9.244;2023-02-01T02:32:42;4.90;99.90
7194;DHT22;3638;48.820;9.244;2023-02-01T02:35:28;4.90;99.90
7194;DHT22;3638;48.820;9.244;2023-02-01T02:38:05;4.90;99.90
7194;DHT22;3638;48.820;9.244;2023-02-01T02:40:45;4.90;99.90
7194;DHT22;3638;48.820;9.244;2023-02-01T02:43:21;4.90;99.90
7194;DHT22;3638;48.820;9.244;2023-02-01T02:46:10;4.80;99.90
7194;DHT22;3638;48.820;9.244;2023-02-01T02:49:04;4.80;99.90
7194;DHT22;3638;48.820;9.244;2023-02-01T02:51:40;4.80;99.90
7194;DHT22;3638;48.820;9.244;2023-02-01T02:54:29;4.80;99.90
7194;DHT22;3638;48.820;9.244;2023-02-01T02:57:19;4.90;99.90
7194;DHT22;3638;48.820;9.244;2023-02-01T03:00:10;4.90;99.90
7194;DHT22;3638;48.820;9.244;2023-02-01T03:02:57;4.90;99.90
7194;DHT22;3638;48.820;9.244;2023-02-01T03:05:44;4.80;99.90
7194;DHT22;3638;48.820;9.244;2023-02-01T03:08:14;4.90;99.90
7194;DHT22;3638;48.820;9.244;2023-02-01T03:10:51;5.00;99.90
7194;DHT22;3638;48.820;9.244;2023-02-01T03:13:26;5.00;99.90
7194;DHT22;3638;48.820;9.244;2023-02-01T03:16:00;4.90;99.90
7194;DHT22;3638;48.820;9.244;2023-02-01T03:18:35;4.90;99.90
7194;DHT22;3638;48.820;9.244;2023-02-01T03:21:09;5.00;99.90
7194;DHT22;3638;48.820;9.244;2023-02-01T03:23:42;5.00;99.90
7194;DHT22;3638;48.820;9.244;2023-02-01T03:26:13;5.00;99.90
7194;DHT22;3638;48.820;9.244;2023-02-01T03:28:44;5.00;99.90
7194;DHT22;3638;48.820;9.244;2023-02-01T03:31:14;5.00;99.90
7194;DHT22;3638;48.820;9.244;2023-02-01T03:33:42;5.00;99.90
7194;DHT22;3638;48.820;9.244;2023-02-01T03:36:15;4.80;99.90
7194;DHT22;3638;48.820;9.244;2023-02-01T03:38:54;4.90;99.90
7194;DHT22;3638;48.820;9.244;2023-02-01T03:41:28;4.80;99.90
7194;DHT22;3638;48.820;9.244;2023-02-01T03:44:04;4.90;99.90
7194;DHT22;3638;48.820;9.244;2023-02-01T03:46:40;4.90;99.90
7194;DHT22;3638;48.820;9.244;2023-02-01T03:49:12;4.90;99.90
7194;DHT22;3638;48.820;9.244;2023-02-01T03:51:41;4.90;99.90
7194;DHT22;3638;48.820;9.244;2023-02-01T03:54:12;4.90;99.90
7194;DHT22;3638;48.820;9.244;2023-02-01T03:56:43;4.90;99.90
7194;DHT22;3638;48.820;9.244;2023-02-01T03:59:11;5.00;99.90
7194;DHT22;3638;48.820;9.244;2023-02-01T04:01:39;5.00;99.90
7194;DHT22;3638;48.820;9.244;2023-02-01T04:04:06;5.00;99.90
7194;DHT22;3638;48.820;9.244;2023-02-01T04:06:33;5.00;99.90
7194;DHT22;3638;48.820;9.244;2023-02-01T04:09:00;4.90;99.90
7194;DHT22;3638;48.820;9.244;2023-02-01T04:11:29;4.90;99.90
7194;DHT22;3638;48.820;9.244;2023-02-01T04:13:56;4.90;99.90
7194;DHT22;3638;48.820;9.244;2023-02-01T04:16:22;4.90;99.90
7194;DHT22;3638;48.820;9.244;2023-02-01T04:18:49;5.00;99.90
7194;DHT22;3638;48.820;9.244;2023-02-01T04:21:17;5.00;99.90
7194;DHT22;3638;48.820;9.244;2023-02-01T04:23:44;4.90;99.90
7194;DHT22;3638;48.820;9.244;2023-02-01T04:26:11;5.00;99.90
7194;DHT22;3638;48.820;9.244;2023-02-01T04:28:39;4.90;99.90
7194;DHT22;3638;48.820;9.244;2023-02-01T04:31:05;5.00;99.90
7194;DHT22;3638;48.820;9.244;2023-02-01T04:33:32;4.90;99.90
7194;DHT22;3638;48.820;9.244;2023-02-01T04:35:59;4.90;99.90
7194;DHT22;3638;48.820;9.244;2023-02-01T04:38:26;4.90;99.90
7194;DHT22;3638;48.820;9.244;2023-02-01T04:40:54;4.80;99.90
7194;DHT22;3638;48.820;9.244;2023-02-01T04:43:21;4.80;99.90
7194;DHT22;3638;48.820;9.244;2023-02-01T04:45:50;4.80;99.90
7194;DHT22;3638;48.820;9.244;2023-02-01T04:48:18;4.80;99.90
7194;DHT22;3638;48.820;9.244;2023-02-01T04:50:46;4.80;99.90
7194;DHT22;3638;48.820;9.244;2023-02-01T04:53:14;4.80;99.90
7194;DHT22;3638;48.820;9.244;2023-02-01T04:58:11;4.80;99.90
7194;DHT22;3638;48.820;9.244;2023-02-01T05:00:38;4.90;99.90
7194;DHT22;3638;48.820;9.244;2023-02-01T05:03:06;4.80;99.90
7194;DHT22;3638;48.820;9.244;2023-02-01T05:05:33;4.90;99.90
7194;DHT22;3638;48.820;9.244;2023-02-01T05:07:59;4.90;99.90
7194;DHT22;3638;48.820;9.244;2023-02-01T05:10:26;4.80;99.90
7194;DHT22;3638;48.820;9.244;2023-02-01T05:12:53;4.80;99.90
7194;DHT22;3638;48.820;9.244;2023-02-01T05:18:07;4.70;99.90
7194;DHT22;3638;48.820;9.244;2023-02-01T05:20:34;4.80;99.90
7194;DHT22;3638;48.820;9.244;2023-02-01T05:23:00;4.90;99.90
7194;DHT22;3638;48.820;9.244;2023-02-01T05:25:27;4.90;99.90
7194;DHT22;3638;48.820;9.244;2023-02-01T05:27:54;4.80;99.90
7194;DHT22;3638;48.820;9.244;2023-02-01T05:30:21;4.80;99.90
7194;DHT22;3638;48.820;9.244;2023-02-01T05:32:49;4.90;99.90
7194;DHT22;3638;48.820;9.244;2023-02-01T05:35:18;4.90;99.90
7194;DHT22;3638;48.820;9.244;2023-02-01T05:37:45;5.00;99.90
7194;DHT22;3638;48.820;9.244;2023-02-01T05:40:12;5.00;99.90
7194;DHT22;3638;48.820;9.244;2023-02-01T05:42:39;5.00;99.90
7194;DHT22;3638;48.820;9.244;2023-02-01T05:45:07;5.10;99.90
7194;DHT22;3638;48.820;9.244;2023-02-01T05:47:34;5.10;99.90
7194;DHT22;3638;48.820;9.244;2023-02-01T05:50:02;5.10;99.90
7194;DHT22;3638;48.820;9.244;2023-02-01T05:52:30;5.10;99.90
7194;DHT22;3638;48.820;9.244;2023-02-01T05:54:57;5.10;99.90
7194;DHT22;3638;48.820;9.244;2023-02-01T05:57:24;5.10;99.90
7194;DHT22;3638;48.820;9.244;2023-02-01T05:59:51;5.10;99.90
7194;DHT22;3638;48.820;9.244;2023-02-01T06:02:18;5.10;99.90
7194;DHT22;3638;48.820;9.244;2023-02-01T06:04:45;5.00;99.90
7194;DHT22;3638;48.820;9.244;2023-02-01T06:07:12;5.10;99.90
7194;DHT22;3638;48.820;9.244;2023-02-01T06:09:40;5.10;99.90
7194;DHT22;3638;48.820;9.244;2023-02-01T06:12:07;5.00;99.90
7194;DHT22;3638;48.820;9.244;2023-02-01T06:14:34;5.30;99.90
7194;DHT22;3638;48.820;9.244;2023-02-01T06:17:02;5.00;99.90
7194;DHT22;3638;48.820;9.244;2023-02-01T06:19:31;5.00;99.90
7194;DHT22;3638;48.820;9.244;2023-02-01T06:21:57;5.00;99.90
7194;DHT22;3638;48.820;9.244;2023-02-01T06:24:24;5.00;99.90
7194;DHT22;3638;48.820;9.244;2023-02-01T06:26:52;5.00;99.90
7194;DHT22;3638;48.820;9.244;2023-02-01T06:29:19;5.00;99.90
7194;DHT22;3638;48.820;9.244;2023-02-01T06:31:46;5.00;99.90
7194;DHT22;3638;48.820;9.244;2023-02-01T06:34:13;5.10;99.90
7194;DHT22;3638;48.820;9.244;2023-02-01T06:36:40;5.10;99.90
7194;DHT22;3638;48.820;9.244;2023-02-01T06:39:06;5.10;99.90
7194;DHT22;3638;48.820;9.244;2023-02-01T06:41:33;5.00;99.90
7194;DHT22;3638;48.820;9.244;2023-02-01T06:44:02;5.00;99.90
7194;DHT22;3638;48.820;9.244;2023-02-01T06:46:29;5.00;99.90
7194;DHT22;3638;48.820;9.244;2023-02-01T06:48:56;5.00;99.90
7194;DHT22;3638;48.820;9.244;2023-02-01T06:51:25;5.10;99.90
7194;DHT22;3638;48.820;9.244;2023-02-01T06:53:53;5.10;99.90
7194;DHT22;3638;48.820;9.244;2023-02-01T06:56:21;5.20;99.90
7194;DHT22;3638;48.820;9.244;2023-02-01T06:58:48;5.20;99.90
7194;DHT22;3638;48.820;9.244;2023-02-01T07:01:17;5.20;99.90
7194;DHT22;3638;48.820;9.244;2023-02-01T07:03:47;5.20;99.90
7194;DHT22;3638;48.820;9.244;2023-02-01T07:06:17;5.30;99.90
7194;DHT22;3638;48.820;9.244;2023-02-01T07:08:44;5.20;99.90
7194;DHT22;3638;48.820;9.244;2023-02-01T07:11:13;5.30;99.90
7194;DHT22;3638;48.820;9.244;2023-02-01T07:13:40;5.40;99.90
7194;DHT22;3638;48.820;9.244;2023-02-01T07:16:10;5.40;99.90
7194;DHT22;3638;48.820;9.244;2023-02-01T07:18:39;5.50;99.90
7194;DHT22;3638;48.820;9.244;2023-02-01T07:21:06;5.50;99.90
7194;DHT22;3638;48.820;9.244;2023-02-01T07:23:33;5.60;99.90
7194;DHT22;3638;48.820;9.244;2023-02-01T07:26:02;5.60;99.90
7194;DHT22;3638;48.820;9.244;2023-02-01T07:28:31;5.60;99.90
7194;DHT22;3638;48.820;9.244;2023-02-01T07:31:02;5.60;99.90
7194;DHT22;3638;48.820;9.244;2023-02-01T07:33:29;5.70;99.90
7194;DHT22;3638;48.820;9.244;2023-02-01T07:35:59;5.70;99.90
7194;DHT22;3638;48.820;9.244;2023-02-01T07:38:27;5.70;99.90
7194;DHT22;3638;48.820;9.244;2023-02-01T07:40:57;5.70;99.90
7194;DHT22;3638;48.820;9.244;2023-02-01T07:43:24;5.70;99.90
7194;DHT22;3638;48.820;9.244;2023-02-01T07:45:52;5.80;99.90
7194;DHT22;3638;48.820;9.244;2023-02-01T07:48:19;5.80;99.90
7194;DHT22;3638;48.820;9.244;2023-02-01T07:50:46;5.80;99.90
7194;DHT22;3638;48.820;9.244;2023-02-01T07:53:14;5.80;99.90
7194;DHT22;3638;48.820;9.244;2023-02-01T07:55:41;5.80;99.90
7194;DHT22;3638;48.820;9.244;2023-02-01T07:58:08;5.90;99.90
7194;DHT22;3638;48.820;9.244;2023-02-01T08:00:35;5.90;99.90
7194;DHT22;3638;48.820;9.244;2023-02-01T08:03:19;5.90;99.90
7194;DHT22;3638;48.820;9.244;2023-02-01T08:05:46;5.90;99.90
7194;DHT22;3638;48.820;9.244;2023-02-01T08:08:14;5.90;99.90
7194;DHT22;3638;48.820;9.244;2023-02-01T08:10:41;6.00;99.90
7194;DHT22;3638;48.820;9.244;2023-02-01T08:13:07;6.10;99.90
7194;DHT22;3638;48.820;9.244;2023-02-01T08:15:35;6.20;99.90
7194;DHT22;3638;48.820;9.244;2023-02-01T08:18:02;6.30;99.90
7194;DHT22;3638;48.820;9.244;2023-02-01T08:20:30;6.30;99.90
7194;DHT22;3638;48.820;9.244;2023-02-01T08:22:56;6.30;99.90
7194;DHT22;3638;48.820;9.244;2023-02-01T08:25:25;6.40;99.90
7194;DHT22;3638;48.820;9.244;2023-02-01T08:27:54;6.40;99.90
7194;DHT22;3638;48.820;9.244;2023-02-01T08:30:21;6.60;99.90
7194;DHT22;3638;48.820;9.244;2023-02-01T08:32:48;6.50;99.90
7194;DHT22;3638;48.820;9.244;2023-02-01T08:35:15;6.70;99.90
7194;DHT22;3638;48.820;9.244;2023-02-01T08:37:42;6.70;99.90
7194;DHT22;3638;48.820;9.244;2023-02-01T08:40:10;6.70;99.90
7194;DHT22;3638;48.820;9.244;2023-02-01T08:42:40;6.90;99.90
7194;DHT22;3638;48.820;9.244;2023-02-01T08:45:20;7.00;99.90
7194;DHT22;3638;48.820;9.244;2023-02-01T08:47:50;7.00;99.90
7194;DHT22;3638;48.820;9.244;2023-02-01T08:50:17;7.10;99.90
7194;DHT22;3638;48.820;9.244;2023-02-01T08:52:45;7.10;99.90
7194;DHT22;3638;48.820;9.244;2023-02-01T08:55:15;7.20;99.90
7194;DHT22;3638;48.820;9.244;2023-02-01T09:00:14;7.20;99.90
7194;DHT22;3638;48.820;9.244;2023-02-01T09:02:43;7.20;99.90
7194;DHT22;3638;48.820;9.244;2023-02-01T09:05:11;7.20;99.90
7194;DHT22;3638;48.820;9.244;2023-02-01T09:07:39;7.10;99.90
7194;DHT22;3638;48.820;9.244;2023-02-01T09:10:07;7.20;99.90
7194;DHT22;3638;48.820;9.244;2023-02-01T09:12:35;7.10;99.90
7194;DHT22;3638;48.820;9.244;2023-02-01T09:15:05;7.00;99.90
7194;DHT22;3638;48.820;9.244;2023-02-01T09:17:33;7.00;99.90
7194;DHT22;3638;48.820;9.244;2023-02-01T09:20:01;6.90;99.90
7194;DHT22;3638;48.820;9.244;2023-02-01T09:22:28;6.80;99.90
7194;DHT22;3638;48.820;9.244;2023-02-01T09:24:54;6.70;99.90
7194;DHT22;3638;48.820;9.244;2023-02-01T09:27:22;6.70;99.90
7194;DHT22;3638;48.820;9.244;2023-02-01T09:29:49;6.70;99.90
7194;DHT22;3638;48.820;9.244;2023-02-01T09:32:19;6.70;99.90
7194;DHT22;3638;48.820;9.244;2023-02-01T09:34:47;6.80;99.90
7194;DHT22;3638;48.820;9.244;2023-02-01T09:37:14;7.00;99.90
7194;DHT22;3638;48.820;9.244;2023-02-01T09:39:41;7.20;99.90
7194;DHT22;3638;48.820;9.244;2023-02-01T09:42:19;7.40;99.90
7194;DHT22;3638;48.820;9.244;2023-02-01T09:45:17;7.50;99.90
7194;DHT22;3638;48.820;9.244;2023-02-01T09:47:53;7.50;99.90
7194;DHT22;3638;48.820;9.244;2023-02-01T09:50:25;7.50;99.90
7194;DHT22;3638;48.820;9.244;2023-02-01T09:52:59;7.50;99.90
7194;DHT22;3638;48.820;9.244;2023-02-01T09:55:34;7.50;99.90
7194;DHT22;3638;48.820;9.244;2023-02-01T09:58:07;7.30;99.90
7194;DHT22;3638;48.820;9.244;2023-02-01T10:00:38;7.40;99.90
7194;DHT22;3638;48.820;9.244;2023-02-01T10:03:11;7.40;99.90
7194;DHT22;3638;48.820;9.244;2023-02-01T10:06:00;7.50;99.90
7194;DHT22;3638;48.820;9.244;2023-02-01T10:08:59;7.50;99.90
7194;DHT22;3638;48.820;9.244;2023-02-01T10:11:56;7.40;99.90
7194;DHT22;3638;48.820;9.244;2023-02-01T10:14:42;9.40;99.90
7194;DHT22;3638;48.820;9.244;2023-02-01T10:17:25;7.60;99.90
7194;DHT22;3638;48.820;9.244;2023-02-01T10:20:09;7.60;99.90
7194;DHT22;3638;48.820;9.244;2023-02-01T10:22:41;7.60;99.90
7194;DHT22;3638;48.820;9.244;2023-02-01T10:25:16;7.70;99.90
7194;DHT22;3638;48.820;9.244;2023-02-01T10:27:50;7.70;99.90
7194;DHT22;3638;48.820;9.244;2023-02-01T10:30:20;7.80;99.90
7194;DHT22;3638;48.820;9.244;2023-02-01T10:32:51;7.70;99.90
7194;DHT22;3638;48.820;9.244;2023-02-01T10:35:26;7.80;99.90
7194;DHT22;3638;48.820;9.244;2023-02-01T10:37:58;7.80;99.90
7194;DHT22;3638;48.820;9.244;2023-02-01T10:40:27;7.80;99.90
7194;DHT22;3638;48.820;9.244;2023-02-01T10:42:57;7.70;99.90
7194;DHT22;3638;48.820;9.244;2023-02-01T10:45:29;7.70;99.90
7194;DHT22;3638;48.820;9.244;2023-02-01T10:47:58;7.70;99.90
7194;DHT22;3638;48.820;9.244;2023-02-01T10:50:34;7.60;99.90
7194;DHT22;3638;48.820;9.244;2023-02-01T10:53:07;7.60;99.90
7194;DHT22;3638;48.820;9.244;2023-02-01T10:55:40;7.60;99.90
7194;DHT22;3638;48.820;9.244;2023-02-01T10:58:15;7.70;99.90
7194;DHT22;3638;48.820;9.244;2023-02-01T11:00:46;7.80;99.90
7194;DHT22;3638;48.820;9.244;2023-02-01T11:03:36;7.80;99.90
7194;DHT22;3638;48.820;9.244;2023-02-01T11:06:16;7.90;99.90
7194;DHT22;3638;48.820;9.244;2023-02-01T11:08:52;7.80;99.90
7194;DHT22;3638;48.820;9.244;2023-02-01T11:11:20;7.80;99.90
7194;DHT22;3638;48.820;9.244;2023-02-01T11:13:53;7.70;99.90
7194;DHT22;3638;48.820;9.244;2023-02-01T11:16:29;7.70;99.90
7194;DHT22;3638;48.820;9.244;2023-02-01T11:18:59;7.70;99.90
7194;DHT22;3638;48.820;9.244;2023-02-01T11:21:28;7.90;99.90
7194;DHT22;3638;48.820;9.244;2023-02-01T11:24:00;7.90;99.90
7194;DHT22;3638;48.820;9.244;2023-02-01T11:26:29;7.70;99.90
7194;DHT22;3638;48.820;9.244;2023-02-01T11:29:00;7.70;99.90
7194;DHT22;3638;48.820;9.244;2023-02-01T11:31:29;7.80;99.90
7194;DHT22;3638;48.820;9.244;2023-02-01T11:34:00;7.80;99.90
7194;DHT22;3638;48.820;9.244;2023-02-01T11:36:33;7.80;99.90
7194;DHT22;3638;48.820;9.244;2023-02-01T11:39:17;7.80;99.90
7194;DHT22;3638;48.820;9.244;2023-02-01T11:41:57;7.80;99.90
7194;DHT22;3638;48.820;9.244;2023-02-01T11:44:31;7.90;99.90
7194;DHT22;3638;48.820;9.244;2023-02-01T11:47:28;7.80;99.90
7194;DHT22;3638;48.820;9.244;2023-02-01T11:49:58;7.80;99.90
7194;DHT22;3638;48.820;9.244;2023-02-01T11:52:43;7.80;99.90
7194;DHT22;3638;48.820;9.244;2023-02-01T11:55:34;7.70;99.90
7194;DHT22;3638;48.820;9.244;2023-02-01T11:58:22;7.80;99.90
7194;DHT22;3638;48.820;9.244;2023-02-01T12:01:03;7.60;99.90
7194;DHT22;3638;48.820;9.244;2023-02-01T12:04:07;7.80;99.90
7194;DHT22;3638;48.820;9.244;2023-02-01T12:06:48;7.70;99.90
7194;DHT22;3638;48.820;9.244;2023-02-01T12:09:34;7.70;99.90
7194;DHT22;3638;48.820;9.244;2023-02-01T12:12:13;7.80;99.90
7194;DHT22;3638;48.820;9.244;2023-02-01T12:14:59;7.70;99.90
7194;DHT22;3638;48.820;9.244;2023-02-01T12:17:49;8.70;99.90
7194;DHT22;3638;48.820;9.244;2023-02-01T12:20:48;7.70;99.90
7194;DHT22;3638;48.820;9.244;2023-02-01T12:23:59;7.60;99.90
7194;DHT22;3638;48.820;9.244;2023-02-01T12:26:44;7.40;99.90
7194;DHT22;3638;48.820;9.244;2023-02-01T12:29:34;7.50;99.90
7194;DHT22;3638;48.820;9.244;2023-02-01T12:32:25;7.50;99.90
7194;DHT22;3638;48.820;9.244;2023-02-01T12:35:36;7.50;99.90
7194;DHT22;3638;48.820;9.244;2023-02-01T12:38:21;7.50;99.90
7194;DHT22;3638;48.820;9.244;2023-02-01T12:41:10;7.60;99.90
7194;DHT22;3638;48.820;9.244;2023-02-01T12:44:02;7.60;99.90
7194;DHT22;3638;48.820;9.244;2023-02-01T12:46:35;7.40;99.90
7194;DHT22;3638;48.820;9.244;2023-02-01T12:49:08;7.50;99.90
7194;DHT22;3638;48.820;9.244;2023-02-01T12:51:38;7.40;99.90
7194;DHT22;3638;48.820;9.244;2023-02-01T12:54:12;7.40;99.90
7194;DHT22;3638;48.820;9.244;2023-02-01T12:56:48;7.30;99.90
7194;DHT22;3638;48.820;9.244;2023-02-01T12:59:24;7.20;99.90
7194;DHT22;3638;48.820;9.244;2023-02-01T13:01:56;7.30;99.90
7194;DHT22;3638;48.820;9.244;2023-02-01T13:04:29;7.30;99.90
7194;DHT22;3638;48.820;9.244;2023-02-01T13:07:06;7.20;99.90
7194;DHT22;3638;48.820;9.244;2023-02-01T13:09:39;7.10;99.90
7194;DHT22;3638;48.820;9.244;2023-02-01T13:12:21;7.00;99.90
7194;DHT22;3638;48.820;9.244;2023-02-01T13:14:55;7.00;99.90
7194;DHT22;3638;48.820;9.244;2023-02-01T13:17:26;7.00;99.90
7194;DHT22;3638;48.820;9.244;2023-02-01T13:19:57;6.90;99.90
7194;DHT22;3638;48.820;9.244;2023-02-01T13:22:30;6.80;99.90
7194;DHT22;3638;48.820;9.244;2023-02-01T13:25:00;6.80;99.90
7194;DHT22;3638;48.820;9.244;2023-02-01T13:27:37;6.80;99.90
7194;DHT22;3638;48.820;9.244;2023-02-01T13:30:12;9.70;99.90
7194;DHT22;3638;48.820;9.244;2023-02-01T13:33:06;7.00;99.90
7194;DHT22;3638;48.820;9.244;2023-02-01T13:39:19;7.10;99.90
7194;DHT22;3638;48.820;9.244;2023-02-01T13:42:14;7.10;99.90
7194;DHT22;3638;48.820;9.244;2023-02-01T13:44:45;7.20;99.90
7194;DHT22;3638;48.820;9.244;2023-02-01T13:47:23;7.10;99.90
7194;DHT22;3638;48.820;9.244;2023-02-01T13:49:54;7.30;99.90
7194;DHT22;3638;48.820;9.244;2023-02-01T13:52:29;7.30;99.90
7194;DHT22;3638;48.820;9.244;2023-02-01T13:55:14;7.30;99.90
7194;DHT22;3638;48.820;9.244;2023-02-01T13:57:51;7.30;99.90
7194;DHT22;3638;48.820;9.244;2023-02-01T14:00:27;7.20;99.90
7194;DHT22;3638;48.820;9.244;2023-02-01T14:09:18;7.00;99.90
7194;DHT22;3638;48.820;9.244;2023-02-01T14:11:58;7.00;99.90
7194;DHT22;3638;48.820;9.244;2023-02-01T14:14:43;7.10;99.90
7194;DHT22;3638;48.820;9.244;2023-02-01T14:17:38;7.20;99.90
7194;DHT22;3638;48.820;9.244;2023-02-01T14:23:14;7.30;99.90
7194;DHT22;3638;48.820;9.244;2023-02-01T14:25:43;7.20;99.90
7194;DHT22;3638;48.820;9.244;2023-02-01T14:28:18;7.20;99.90
7194;DHT22;3638;48.820;9.244;2023-02-01T14:30:49;7.20;99.90
7194;DHT22;3638;48.820;9.244;2023-02-01T14:33:22;7.30;99.90
7194;DHT22;3638;48.820;9.244;2023-02-01T14:36:04;7.30;99.90
7194;DHT22;3638;48.820;9.244;2023-02-01T14:38:35;7.20;99.90
7194;DHT22;3638;48.820;9.244;2023-02-01T14:41:29;7.20;99.90
7194;DHT22;3638;48.820;9.244;2023-02-01T14:44:25;7.20;99.90
7194;DHT22;3638;48.820;9.244;2023-02-01T14:47:28;7.40;99.90
7194;DHT22;3638;48.820;9.244;2023-02-01T14:50:07;7.40;99.90
7194;DHT22;3638;48.820;9.244;2023-02-01T14:52:41;7.30;99.90
7194;DHT22;3638;48.820;9.244;2023-02-01T14:55:13;7.30;99.90
7194;DHT22;3638;48.820;9.244;2023-02-01T14:57:43;7.30;99.90
7194;DHT22;3638;48.820;9.244;2023-02-01T15:00:19;7.20;99.90
7194;DHT22;3638;48.820;9.244;2023-02-01T15:02:50;7.30;99.90
7194;DHT22;3638;48.820;9.244;2023-02-01T15:05:35;7.10;99.90
7194;DHT22;3638;48.820;9.244;2023-02-01T15:08:21;7.10;99.90
7194;DHT22;3638;48.820;9.244;2023-02-01T15:10:52;7.10;99.90
7194;DHT22;3638;48.820;9.244;2023-02-01T15:13:21;7.10;99.90
7194;DHT22;3638;48.820;9.244;2023-02-01T15:16:03;8.90;99.90
7194;DHT22;3638;48.820;9.244;2023-02-01T15:18:32;7.10;99.90
7194;DHT22;3638;48.820;9.244;2023-02-01T15:21:00;7.00;99.90
7194;DHT22;3638;48.820;9.244;2023-02-01T15:23:29;7.10;99.90
7194;DHT22;3638;48.820;9.244;2023-02-01T15:25:57;7.00;99.90
7194;DHT22;3638;48.820;9.244;2023-02-01T15:28:26;7.00;99.90
7194;DHT22;3638;48.820;9.244;2023-02-01T15:30:55;7.00;99.90
7194;DHT22;3638;48.820;9.244;2023-02-01T15:33:23;7.00;99.90
7194;DHT22;3638;48.820;9.244;2023-02-01T15:35:52;6.90;99.90
7194;DHT22;3638;48.820;9.244;2023-02-01T15:38:39;6.90;99.90
7194;DHT22;3638;48.820;9.244;2023-02-01T15:41:10;7.00;99.90
7194;DHT22;3638;48.820;9.244;2023-02-01T15:43:42;6.90;99.90
7194;DHT22;3638;48.820;9.244;2023-02-01T15:46:12;7.00;99.90
7194;DHT22;3638;48.820;9.244;2023-02-01T15:48:46;7.00;99.90
7194;DHT22;3638;48.820;9.244;2023-02-01T15:51:19;7.00;99.90
7194;DHT22;3638;48.820;9.244;2023-02-01T15:53:51;7.00;99.90
7194;DHT22;3638;48.820;9.244;2023-02-01T15:56:25;7.00;99.90
7194;DHT22;3638;48.820;9.244;2023-02-01T15:58:56;6.90;99.90
7194;DHT22;3638;48.820;9.244;2023-02-01T16:01:25;6.90;99.90
7194;DHT22;3638;48.820;9.244;2023-02-01T16:04:03;7.00;99.90
7194;DHT22;3638;48.820;9.244;2023-02-01T16:06:36;7.00;99.90
7194;DHT22;3638;48.820;9.244;2023-02-01T16:09:15;7.00;99.90
7194;DHT22;3638;48.820;9.244;2023-02-01T16:11:55;7.00;99.90
7194;DHT22;3638;48.820;9.244;2023-02-01T16:14:24;7.00;99.90
7194;DHT22;3638;48.820;9.244;2023-02-01T16:16:53;7.00;99.90
7194;DHT22;3638;48.820;9.244;2023-02-01T16:19:20;7.00;99.90
7194;DHT22;3638;48.820;9.244;2023-02-01T16:21:50;7.00;99.90
7194;DHT22;3638;48.820;9.244;2023-02-01T16:24:18;7.00;99.90
7194;DHT22;3638;48.820;9.244;2023-02-01T16:26:47;6.90;99.90
7194;DHT22;3638;48.820;9.244;2023-02-01T16:29:14;6.90;99.90
7194;DHT22;3638;48.820;9.244;2023-02-01T16:31:41;6.90;99.90
7194;DHT22;3638;48.820;9.244;2023-02-01T16:34:13;6.90;99.90
7194;DHT22;3638;48.820;9.244;2023-02-01T16:36:42;6.80;99.90
7194;DHT22;3638;48.820;9.244;2023-02-01T16:39:11;6.80;99.90
7194;DHT22;3638;48.820;9.244;2023-02-01T16:41:40;6.90;99.90
7194;DHT22;3638;48.820;9.244;2023-02-01T16:44:07;6.80;99.90
7194;DHT22;3638;48.820;9.244;2023-02-01T16:46:39;6.80;99.90
7194;DHT22;3638;48.820;9.244;2023-02-01T16:49:17;6.80;99.90
7194;DHT22;3638;48.820;9.244;2023-02-01T16:51:45;6.80;99.90
7194;DHT22;3638;48.820;9.244;2023-02-01T16:54:14;6.80;99.90
7194;DHT22;3638;48.820;9.244;2023-02-01T16:56:42;6.80;99.90
7194;DHT22;3638;48.820;9.244;2023-02-01T16:59:11;6.80;99.90
7194;DHT22;3638;48.820;9.244;2023-02-01T17:01:38;6.80;99.90
7194;DHT22;3638;48.820;9.244;2023-02-01T17:04:07;6.70;99.90
7194;DHT22;3638;48.820;9.244;2023-02-01T17:06:35;6.70;99.90
7194;DHT22;3638;48.820;9.244;2023-02-01T17:09:04;6.60;99.90
7194;DHT22;3638;48.820;9.244;2023-02-01T17:11:31;6.60;99.90
7194;DHT22;3638;48.820;9.244;2023-02-01T17:14:07;6.60;99.90
7194;DHT22;3638;48.820;9.244;2023-02-01T17:16:42;6.60;99.90
7194;DHT22;3638;48.820;9.244;2023-02-01T17:19:12;6.60;99.90
7194;DHT22;3638;48.820;9.244;2023-02-01T17:21:45;6.60;99.90